Time;durP1;ratioP1;P1;durP2;ratioP2;P2;SDS_P1;SDS_P2;PMS_P1;PMS_P2;Temp;Humidity;BMP_temperature;BMP_pressure;BME280_temperature;BME280_humidity;BME280_pressure;Samples;Min_cycle;Max_cycle;Signal;HPM_P1;HPM_P2
2023/08/02 00:02:21;;;;;;;7.32;3.00;;;18.00;81.10;;;;;;6137469;23;20025;-91
2023/08/02 00:04:51;;;;;;;8.48;2.88;;;18.00;81.00;;;;;;6161821;23;20068;-91
2023/08/02 00:07:18;;;;;;;7.55;2.90;;;18.00;81.00;;;;;;6161828;23;20017;-91
2023/08/02 00:09:45;;;;;;;7.30;2.70;;;18.00;81.00;;;;;;6162085;23;20100;-92
2023/08/02 00:12:13;;;;;;;7.93;3.20;;;18.00;81.10;;;;;;6161423;23;20448;-92
2023/08/02 00:14:40;;;;;;;8.63;2.80;;;18.00;81.00;;;;;;6137137;23;20025;-92
2023/08/02 00:17:07;;;;;;;9.27;3.05;;;18.00;80.90;;;;;;6161377;23;20025;-91
2023/08/02 00:19:36;;;;;;;8.23;2.78;;;18.00;80.90;;;;;;6162094;23;20025;-91
2023/08/02 00:22:03;;;;;;;5.67;2.17;;;17.80;81.00;;;;;;6161765;23;20020;-92
2023/08/02 00:24:30;;;;;;;10.05;2.60;;;17.80;80.90;;;;;;6161626;23;20035;-92
2023/08/02 00:26:57;;;;;;;5.90;1.90;;;17.70;81.00;;;;;;6161483;23;20017;-92
2023/08/02 00:29:24;;;;;;;7.25;2.58;;;17.70;81.20;;;;;;6161844;23;20024;-91
2023/08/02 00:31:51;;;;;;;8.57;2.35;;;17.60;81.20;;;;;;6137268;23;20515;-91
2023/08/02 00:34:20;;;;;;;7.97;2.43;;;17.70;81.00;;;;;;6161916;23;20187;-92
2023/08/02 00:36:47;;;;;;;8.63;2.60;;;17.70;81.00;;;;;;6137139;23;20052;-92
2023/08/02 00:39:14;;;;;;;7.30;2.10;;;17.60;81.20;;;;;;6161674;23;20107;-92
2023/08/02 00:41:41;;;;;;;8.43;2.60;;;17.60;81.20;;;;;;6161519;23;20021;-92
2023/08/02 00:44:08;;;;;;;6.97;2.60;;;17.60;80.90;;;;;;6136990;23;20021;-91
2023/08/02 00:46:36;;;;;;;8.40;2.50;;;17.70;80.90;;;;;;6161293;23;20103;-91
2023/08/02 00:49:03;;;;;;;6.63;2.28;;;17.60;81.00;;;;;;6158430;23;20059;-91
2023/08/02 00:51:33;;;;;;;9.13;2.78;;;17.60;81.00;;;;;;6102410;23;20393;-90
2023/08/02 00:54:02;;;;;;;6.93;2.45;;;17.60;81.20;;;;;;6104945;23;20022;-91
2023/08/02 00:56:30;;;;;;;8.57;2.63;;;17.60;81.20;;;;;;6126722;23;20025;-91
2023/08/02 00:58:57;;;;;;;6.77;2.30;;;17.60;81.10;;;;;;6101585;23;20436;-91
2023/08/02 01:01:25;;;;;;;8.32;2.47;;;17.60;81.20;;;;;;6131366;23;20014;-90
2023/08/02 01:03:53;;;;;;;5.10;1.80;;;17.60;81.30;;;;;;6131780;23;20017;-91
2023/08/02 01:06:28;;;;;;;6.60;2.05;;;17.50;81.40;;;;;;6132057;23;20022;-91
2023/08/02 01:09:11;;;;;;;6.45;2.17;;;17.50;81.70;;;;;;6107520;23;20018;-91
2023/08/02 01:11:47;;;;;;;5.80;2.10;;;17.50;81.90;;;;;;6131699;23;20022;-91
2023/08/02 01:14:18;;;;;;;5.85;2.33;;;17.50;81.80;;;;;;6131682;23;20024;-91
2023/08/02 01:16:48;;;;;;;6.43;2.10;;;17.40;81.90;;;;;;6131736;23;20021;-92
2023/08/02 01:19:22;;;;;;;6.18;2.00;;;17.50;81.80;;;;;;6108840;23;20025;-92
2023/08/02 01:21:49;;;;;;;6.45;2.40;;;17.50;81.50;;;;;;6132022;23;20045;-93
2023/08/02 01:24:17;;;;;;;6.43;2.10;;;17.50;81.50;;;;;;6132590;23;20325;-93
2023/08/02 01:26:47;;;;;;;6.93;2.15;;;17.30;81.70;;;;;;6108617;23;20017;-91
2023/08/02 01:29:19;;;;;;;6.25;2.35;;;17.30;81.70;;;;;;6109414;23;20017;-91
2023/08/02 01:31:49;;;;;;;7.07;2.60;;;17.30;81.50;;;;;;6133008;23;20022;-91
2023/08/02 01:34:17;;;;;;;8.07;2.50;;;17.40;81.20;;;;;;6107505;23;20018;-92
2023/08/02 01:36:45;;;;;;;7.27;2.23;;;17.40;81.10;;;;;;6132272;23;20017;-92
2023/08/02 01:39:14;;;;;;;8.27;2.65;;;17.40;80.80;;;;;;6132854;23;20021;-92
2023/08/02 01:41:41;;;;;;;8.00;2.75;;;17.40;80.60;;;;;;6108807;23;20108;-91
2023/08/02 01:44:08;;;;;;;7.82;3.00;;;17.40;80.50;;;;;;6132306;23;20048;-92
2023/08/02 01:46:36;;;;;;;8.05;2.97;;;17.30;80.50;;;;;;6131930;23;20017;-91
2023/08/02 01:49:03;;;;;;;10.90;2.70;;;17.30;80.60;;;;;;6107860;23;20036;-92
2023/08/02 01:51:30;;;;;;;8.45;2.92;;;17.30;80.70;;;;;;6107672;23;20519;-91
2023/08/02 01:53:58;;;;;;;14.50;3.10;;;17.20;80.90;;;;;;6131958;23;20027;-91
2023/08/02 01:56:25;;;;;;;10.13;2.97;;;17.20;81.00;;;;;;6131967;23;20045;-91
2023/08/02 01:58:52;;;;;;;10.77;2.85;;;17.20;80.70;;;;;;6133200;23;20080;-91
2023/08/02 02:01:20;;;;;;;10.33;2.43;;;17.30;80.20;;;;;;6133369;23;20022;-92
2023/08/02 02:03:47;;;;;;;8.57;2.75;;;17.20;80.30;;;;;;6133533;23;20068;-91
2023/08/02 02:06:14;;;;;;;6.55;2.35;;;17.20;80.40;;;;;;6121765;23;20026;-92
2023/08/02 02:08:42;;;;;;;7.53;2.13;;;17.20;80.10;;;;;;6133310;23;20021;-92
2023/08/02 02:11:09;;;;;;;6.95;2.30;;;17.20;80.00;;;;;;6133238;23;20460;-92
2023/08/02 02:13:36;;;;;;;7.67;2.00;;;17.20;79.70;;;;;;6133463;23;20018;-92
2023/08/02 02:16:03;;;;;;;6.20;2.30;;;17.10;79.50;;;;;;6133560;23;20440;-91
2023/08/02 02:18:31;;;;;;;10.27;2.70;;;17.20;79.70;;;;;;6109220;23;20400;-92
2023/08/02 02:20:59;;;;;;;7.15;2.35;;;17.20;79.90;;;;;;6134002;23;20047;-92
2023/08/02 02:23:28;;;;;;;8.18;2.60;;;17.10;80.00;;;;;;6109877;23;20440;-91
2023/08/02 02:25:55;;;;;;;7.23;2.57;;;17.10;80.30;;;;;;6134160;23;20028;-91
2023/08/02 02:28:22;;;;;;;9.48;3.03;;;17.00;80.90;;;;;;6133641;23;20381;-92
2023/08/02 02:30:51;;;;;;;9.80;2.75;;;17.00;81.30;;;;;;6108918;23;20052;-90
2023/08/02 02:33:18;;;;;;;8.30;2.78;;;17.00;81.50;;;;;;6133026;23;20022;-90
2023/08/02 02:35:45;;;;;;;9.52;2.60;;;17.00;81.40;;;;;;6133102;23;20017;-90
2023/08/02 02:38:13;;;;;;;9.30;2.90;;;17.00;81.40;;;;;;6132739;23;20080;-91
2023/08/02 02:40:40;;;;;;;10.13;2.80;;;17.00;81.30;;;;;;6132728;23;20021;-90
2023/08/02 02:43:07;;;;;;;7.88;3.20;;;17.00;81.50;;;;;;6132853;23;20049;-90
2023/08/02 02:45:34;;;;;;;9.43;3.03;;;17.10;81.40;;;;;;6108923;23;20021;-91
2023/08/02 02:48:01;;;;;;;7.72;3.13;;;17.10;81.40;;;;;;6108563;23;20109;-91
2023/08/02 02:50:29;;;;;;;10.37;3.50;;;17.10;81.20;;;;;;6134070;23;20021;-92
2023/08/02 02:52:56;;;;;;;9.40;3.80;;;17.10;80.90;;;;;;6108727;23;20121;-91
2023/08/02 02:55:23;;;;;;;10.45;4.20;;;17.10;81.00;;;;;;6132788;23;20081;-92
2023/08/02 02:57:53;;;;;;;8.82;3.47;;;17.10;80.80;;;;;;6133307;23;20040;-91
2023/08/02 03:00:20;;;;;;;13.18;3.92;;;17.10;80.80;;;;;;6108496;23;20021;-91
2023/08/02 03:03:00;;;;;;;9.53;3.63;;;17.10;80.70;;;;;;6108246;23;20471;-92
2023/08/02 03:05:27;;;;;;;8.18;3.22;;;17.10;80.40;;;;;;6132877;23;20022;-92
2023/08/02 03:07:54;;;;;;;10.13;3.28;;;17.10;80.60;;;;;;6132768;23;20049;-92
2023/08/02 03:10:22;;;;;;;10.75;3.03;;;17.10;80.40;;;;;;6133074;23;20025;-92
2023/08/02 03:12:49;;;;;;;10.98;3.90;;;17.10;80.60;;;;;;6108659;23;20024;-92
2023/08/02 03:15:16;;;;;;;8.77;3.10;;;17.00;80.90;;;;;;6108824;23;20017;-92
2023/08/02 03:17:43;;;;;;;9.75;3.53;;;17.00;81.10;;;;;;6132578;23;20043;-91
2023/08/02 03:20:10;;;;;;;10.20;3.35;;;17.00;81.00;;;;;;6108432;23;20029;-92
2023/08/02 03:22:38;;;;;;;8.68;2.90;;;17.00;80.90;;;;;;6132942;23;20048;-92
2023/08/02 03:25:05;;;;;;;9.85;3.05;;;17.00;81.00;;;;;;6107983;23;20021;-89
2023/08/02 03:27:32;;;;;;;8.27;3.17;;;17.00;81.10;;;;;;6108192;23;20049;-94
2023/08/02 03:30:01;;;;;;;9.20;2.95;;;17.00;81.20;;;;;;6133989;23;20018;-90
2023/08/02 03:32:29;;;;;;;7.70;2.67;;;17.00;81.30;;;;;;6132367;23;20029;-89
2023/08/02 03:34:56;;;;;;;8.88;2.60;;;16.90;81.50;;;;;;6108053;23;20045;-91
2023/08/02 03:37:23;;;;;;;6.57;2.38;;;16.90;81.40;;;;;;6132473;23;20344;-90
2023/08/02 03:39:50;;;;;;;7.57;2.20;;;16.80;81.60;;;;;;6131983;23;20017;-90
2023/08/02 03:42:17;;;;;;;7.82;2.60;;;16.80;81.60;;;;;;6107852;23;20021;-90
2023/08/02 03:44:44;;;;;;;7.25;2.10;;;16.70;81.70;;;;;;6132025;23;20017;-90
2023/08/02 03:47:11;;;;;;;6.93;2.40;;;16.60;82.00;;;;;;6132137;23;20014;-90
2023/08/02 03:49:39;;;;;;;8.40;2.40;;;16.60;82.00;;;;;;6107441;23;20021;-91
2023/08/02 03:52:07;;;;;;;9.90;2.73;;;16.60;81.90;;;;;;6107807;23;20037;-91
2023/08/02 03:54:34;;;;;;;6.90;2.15;;;16.60;81.80;;;;;;6107983;23;20021;-90
2023/08/02 03:57:01;;;;;;;6.63;2.13;;;16.60;81.80;;;;;;6131993;23;20100;-90
2023/08/02 03:59:28;;;;;;;7.65;2.30;;;16.60;81.90;;;;;;6107754;23;20451;-91
2023/08/02 04:01:55;;;;;;;6.55;2.22;;;16.60;81.70;;;;;;6131887;23;20060;-90
2023/08/02 04:04:22;;;;;;;7.67;2.37;;;16.50;81.70;;;;;;6107548;23;20072;-90
2023/08/02 04:06:49;;;;;;;6.93;2.65;;;16.50;81.80;;;;;;6132221;23;20022;-90
2023/08/02 04:09:17;;;;;;;7.60;2.80;;;16.50;82.00;;;;;;6131676;23;20025;-90
2023/08/02 04:11:44;;;;;;;9.18;3.58;;;16.40;82.10;;;;;;6107690;23;20021;-90
2023/08/02 04:14:11;;;;;;;12.45;4.05;;;16.50;82.20;;;;;;6131678;23;20021;-90
2023/08/02 04:16:38;;;;;;;11.50;4.23;;;16.50;82.40;;;;;;6131655;23;20043;-90
2023/08/02 04:19:05;;;;;;;9.98;3.75;;;16.50;82.50;;;;;;6131757;23;20024;-90
2023/08/02 04:21:32;;;;;;;8.82;2.90;;;16.50;82.50;;;;;;6107369;23;20057;-90
2023/08/02 04:24:00;;;;;;;9.35;3.13;;;16.50;82.40;;;;;;6107501;23;20017;-90
2023/08/02 04:26:28;;;;;;;9.48;2.55;;;16.50;82.30;;;;;;6131653;23;20444;-90
2023/08/02 04:28:55;;;;;;;9.03;3.10;;;16.50;82.40;;;;;;6107463;23;20013;-90
2023/08/02 04:31:22;;;;;;;6.72;2.70;;;16.50;82.20;;;;;;6131721;23;20022;-90
2023/08/02 04:33:49;;;;;;;7.07;2.50;;;16.50;81.90;;;;;;6132011;23;20045;-90
2023/08/02 04:36:16;;;;;;;5.78;2.20;;;16.50;81.80;;;;;;6132533;23;20021;-90
2023/08/02 04:38:43;;;;;;;8.20;2.42;;;16.60;82.00;;;;;;6131575;23;20053;-90
2023/08/02 04:41:16;;;;;;;5.53;1.50;;;16.80;81.80;;;;;;6131914;23;20021;-90
2023/08/02 04:43:46;;;;;;;6.25;1.70;;;16.90;81.50;;;;;;6131544;23;20033;-91
2023/08/02 04:46:14;;;;;;;5.30;1.70;;;17.00;81.00;;;;;;6131725;23;20100;-90
2023/08/02 04:48:41;;;;;;;5.28;1.67;;;17.00;80.60;;;;;;6107388;23;20348;-91
2023/08/02 04:51:10;;;;;;;5.28;1.58;;;17.00;80.40;;;;;;6131076;23;20053;-90
2023/08/02 04:53:37;;;;;;;6.00;2.03;;;17.00;80.60;;;;;;6131397;23;20104;-90
2023/08/02 04:56:09;;;;;;;7.45;1.60;;;17.00;80.20;;;;;;6107450;23;20104;-90
2023/08/02 04:58:36;;;;;;;5.15;1.70;;;17.00;79.90;;;;;;6131544;23;20396;-90
2023/08/02 05:01:04;;;;;;;4.85;1.40;;;16.90;79.90;;;;;;6107340;23;20112;-90
2023/08/02 05:03:35;;;;;;;4.70;1.60;;;17.00;79.90;;;;;;6131452;23;20021;-90
2023/08/02 05:06:05;;;;;;;4.40;1.20;;;17.10;79.80;;;;;;6131469;23;20337;-90
2023/08/02 05:08:36;;;;;;;6.32;1.73;;;17.10;79.20;;;;;;6107051;23;20044;-90
2023/08/02 05:11:07;;;;;;;4.10;1.40;;;17.30;79.20;;;;;;6131477;23;20021;-90
2023/08/02 05:13:34;;;;;;;4.70;1.33;;;17.30;78.90;;;;;;6131130;23;20025;-90
2023/08/02 05:16:02;;;;;;;5.45;1.65;;;17.30;79.10;;;;;;6107297;23;20460;-90
2023/08/02 05:18:29;;;;;;;7.40;1.80;;;17.40;79.10;;;;;;6130848;23;20017;-90
2023/08/02 05:20:59;;;;;;;4.43;1.67;;;17.40;78.60;;;;;;6131062;23;20052;-90
2023/08/02 05:23:26;;;;;;;6.43;1.60;;;17.40;78.90;;;;;;6131349;23;20360;-90
2023/08/02 05:25:55;;;;;;;6.88;1.60;;;17.50;78.70;;;;;;6131352;23;20124;-90
2023/08/02 05:28:22;;;;;;;4.75;1.48;;;17.70;78.00;;;;;;6106983;23;20022;-91
2023/08/02 05:30:49;;;;;;;5.43;1.70;;;17.90;77.60;;;;;;6131330;23;20021;-90
2023/08/02 05:33:16;;;;;;;6.72;1.60;;;18.00;77.50;;;;;;6132569;23;20048;-90
2023/08/02 05:35:43;;;;;;;3.95;1.52;;;18.20;77.10;;;;;;6109277;23;20018;-90
2023/08/02 05:38:10;;;;;;;5.35;1.73;;;18.20;76.60;;;;;;6133496;23;20088;-90
2023/08/02 05:40:37;;;;;;;5.38;1.63;;;18.30;76.90;;;;;;6133592;23;20148;-90
2023/08/02 05:43:06;;;;;;;4.63;1.50;;;18.40;76.60;;;;;;6108941;23;20048;-90
2023/08/02 05:45:33;;;;;;;4.80;1.30;;;18.50;75.90;;;;;;6133251;23;20053;-90
2023/08/02 05:48:01;;;;;;;4.43;1.48;;;18.60;75.70;;;;;;6133471;23;20053;-90
2023/08/02 05:50:31;;;;;;;4.68;1.35;;;18.70;75.60;;;;;;6133429;23;20028;-90
2023/08/02 05:52:58;;;;;;;6.50;1.60;;;18.90;75.70;;;;;;6108871;23;20021;-90
2023/08/02 05:55:25;;;;;;;5.30;1.40;;;19.00;74.80;;;;;;6133091;23;20021;-90
2023/08/02 05:57:53;;;;;;;3.95;1.23;;;19.10;74.70;;;;;;6108791;23;20018;-91
2023/08/02 06:00:20;;;;;;;4.65;1.50;;;19.20;75.10;;;;;;6108866;23;20022;-90
2023/08/02 06:02:47;;;;;;;4.10;1.48;;;19.30;75.20;;;;;;6133182;23;20436;-91
2023/08/02 06:05:14;;;;;;;4.45;1.75;;;19.50;74.80;;;;;;6092017;23;20388;-90
2023/08/02 06:07:41;;;;;;;6.37;1.77;;;19.50;74.50;;;;;;6146630;23;20040;-91
2023/08/02 06:10:09;;;;;;;4.35;1.50;;;19.70;74.30;;;;;;6108115;23;20023;-91
2023/08/02 06:12:36;;;;;;;5.05;1.70;;;19.80;74.30;;;;;;6108900;23;20381;-91
2023/08/02 06:15:04;;;;;;;5.25;1.40;;;19.80;73.80;;;;;;6133055;23;20017;-90
2023/08/02 06:17:31;;;;;;;4.57;1.50;;;19.90;73.10;;;;;;6133113;23;20072;-90
2023/08/02 06:19:59;;;;;;;5.03;1.20;;;20.00;73.40;;;;;;6132873;23;20022;-90
2023/08/02 06:22:26;;;;;;;6.25;1.92;;;20.10;72.80;;;;;;6109129;23;20056;-91
2023/08/02 06:24:53;;;;;;;4.60;1.35;;;20.10;72.40;;;;;;6132983;23;20032;-91
2023/08/02 06:27:20;;;;;;;5.00;1.52;;;20.10;71.70;;;;;;6108613;23;20017;-90
2023/08/02 06:29:47;;;;;;;6.45;1.80;;;20.20;72.10;;;;;;6108465;23;20104;-91
2023/08/02 06:32:15;;;;;;;7.27;1.80;;;20.20;72.10;;;;;;6132526;23;20018;-90
2023/08/02 06:34:42;;;;;;;5.85;1.80;;;20.30;72.00;;;;;;6108876;23;20104;-91
2023/08/02 06:37:09;;;;;;;5.45;1.98;;;20.50;72.40;;;;;;6132818;23;20017;-90
2023/08/02 06:39:36;;;;;;;6.18;2.08;;;20.60;71.60;;;;;;6132536;23;20021;-90
2023/08/02 06:42:03;;;;;;;7.35;1.52;;;20.80;71.00;;;;;;6108599;23;20401;-90
2023/08/02 06:44:31;;;;;;;6.60;1.80;;;21.00;70.20;;;;;;6132677;23;20482;-90
2023/08/02 06:46:58;;;;;;;5.35;1.73;;;21.10;70.60;;;;;;6108572;23;20044;-90
2023/08/02 06:49:25;;;;;;;6.82;1.80;;;21.30;71.50;;;;;;6132492;23;20030;-91
2023/08/02 06:51:52;;;;;;;4.97;1.50;;;21.40;69.10;;;;;;6108273;23;20088;-90
2023/08/02 06:54:19;;;;;;;6.30;2.20;;;21.30;67.30;;;;;;6132725;23;20344;-90
2023/08/02 06:56:46;;;;;;;7.73;1.90;;;21.10;68.00;;;;;;6108461;23;20073;-90
2023/08/02 06:59:13;;;;;;;6.32;1.92;;;21.00;69.00;;;;;;6132522;23;20025;-90
2023/08/02 07:01:41;;;;;;;9.48;1.70;;;21.00;69.90;;;;;;6132507;23;20077;-90
2023/08/02 07:04:08;;;;;;;5.53;1.63;;;21.10;69.60;;;;;;6132694;23;20032;-90
2023/08/02 07:06:35;;;;;;;7.75;2.15;;;21.10;68.40;;;;;;6132520;23;20025;-90
2023/08/02 07:09:03;;;;;;;5.50;1.63;;;21.10;68.30;;;;;;6132514;23;20018;-90
2023/08/02 07:11:30;;;;;;;6.43;1.70;;;21.10;68.40;;;;;;6108056;23;20018;-90
2023/08/02 07:14:03;;;;;;;5.65;1.60;;;21.00;68.30;;;;;;6132392;23;20033;-90
2023/08/02 07:16:30;;;;;;;4.68;1.23;;;21.00;68.10;;;;;;6132273;23;20099;-90
2023/08/02 07:19:02;;;;;;;4.50;1.58;;;20.90;67.40;;;;;;6132340;23;20021;-90
2023/08/02 07:21:29;;;;;;;6.93;1.37;;;20.80;68.40;;;;;;6132452;23;20021;-90
2023/08/02 07:23:56;;;;;;;7.82;1.90;;;20.90;69.20;;;;;;6107726;23;20478;-90
2023/08/02 07:26:23;;;;;;;4.72;1.42;;;21.00;67.00;;;;;;6132191;23;20052;-90
2023/08/02 07:28:50;;;;;;;4.10;1.15;;;20.80;66.40;;;;;;6132336;23;20045;-89
2023/08/02 07:31:18;;;;;;;4.55;1.20;;;20.90;67.10;;;;;;6107956;23;20073;-90
2023/08/02 07:33:46;;;;;;;6.20;1.10;;;20.90;66.20;;;;;;6132308;23;20025;-89
2023/08/02 07:36:15;;;;;;;5.65;1.10;;;20.90;66.90;;;;;;6131995;23;20045;-90
2023/08/02 07:38:44;;;;;;;3.75;1.23;;;20.80;67.10;;;;;;6103139;23;20100;-90
2023/08/02 07:41:11;;;;;;;4.10;0.95;;;20.80;66.00;;;;;;6107614;23;20029;-90
2023/08/02 07:43:38;;;;;;;4.65;1.50;;;20.60;66.00;;;;;;6132188;23;20337;-89
2023/08/02 07:46:14;;;;;;;3.47;1.00;;;20.60;66.80;;;;;;6107976;23;20360;-90
2023/08/02 07:48:41;;;;;;;5.28;1.40;;;20.60;66.90;;;;;;6131942;23;20052;-90
2023/08/02 07:51:08;;;;;;;4.65;1.38;;;20.60;67.20;;;;;;6107685;23;20108;-90
2023/08/02 07:53:36;;;;;;;3.80;1.20;;;20.80;67.40;;;;;;6102842;23;20022;-90
2023/08/02 07:56:04;;;;;;;3.20;0.90;;;21.00;65.00;;;;;;6103591;23;20017;-90
2023/08/02 07:58:31;;;;;;;3.10;1.00;;;21.30;64.60;;;;;;6107782;23;20065;-90
2023/08/02 08:01:07;;;;;;;5.03;1.20;;;21.50;65.30;;;;;;6131743;23;20352;-90
2023/08/02 08:03:35;;;;;;;3.47;1.00;;;21.60;64.30;;;;;;6103128;23;20025;-90
2023/08/02 08:06:19;;;;;;;4.05;1.15;;;21.60;63.20;;;;;;6154321;23;20017;-90
2023/08/02 08:08:48;;;;;;;3.60;1.08;;;21.70;63.80;;;;;;6131716;23;20104;-90
2023/08/02 08:11:16;;;;;;;4.03;1.00;;;21.80;64.60;;;;;;6131803;23;20045;-90
2023/08/02 08:13:43;;;;;;;5.35;1.17;;;21.80;62.40;;;;;;6131858;23;20023;-91
2023/08/02 08:16:13;;;;;;;6.25;1.27;;;21.80;62.60;;;;;;6131931;23;20076;-90
2023/08/02 08:18:40;;;;;;;2.95;1.10;;;21.90;63.90;;;;;;6131754;23;20444;-90
2023/08/02 08:21:07;;;;;;;3.35;0.95;;;22.00;63.10;;;;;;6107754;23;20347;-90
2023/08/02 08:23:35;;;;;;;5.70;1.00;;;22.10;62.40;;;;;;6131941;23;20018;-91
2023/08/02 08:26:02;;;;;;;4.10;0.90;;;22.10;63.00;;;;;;6132169;23;20014;-90
2023/08/02 08:28:29;;;;;;;2.97;1.02;;;22.10;62.10;;;;;;6107410;23;20348;-90
2023/08/02 08:31:00;;;;;;;3.53;0.90;;;22.30;62.20;;;;;;6131613;23;20072;-90
2023/08/02 08:33:29;;;;;;;7.20;1.10;;;22.30;60.00;;;;;;6131736;23;20017;-90
2023/08/02 08:35:56;;;;;;;3.30;0.80;;;22.40;61.50;;;;;;6107448;23;20108;-90
2023/08/02 08:38:23;;;;;;;3.20;1.00;;;22.50;61.40;;;;;;6131551;23;20028;-90
2023/08/02 08:40:55;;;;;;;5.68;1.00;;;22.60;61.90;;;;;;6131428;23;20022;-90
2023/08/02 08:43:27;;;;;;;3.85;1.00;;;22.70;59.70;;;;;;6131582;23;20032;-90
2023/08/02 08:45:58;;;;;;;3.38;1.00;;;22.80;57.50;;;;;;6131772;23;20021;-90
2023/08/02 08:48:27;;;;;;;2.73;0.93;;;23.00;61.00;;;;;;6107585;23;20060;-90
2023/08/02 08:51:01;;;;;;;4.05;0.88;;;23.10;57.30;;;;;;6131229;23;20396;-90
2023/08/02 08:53:33;;;;;;;3.38;0.75;;;23.10;58.10;;;;;;6131526;23;20444;-90
2023/08/02 08:56:03;;;;;;;3.47;0.90;;;23.00;56.80;;;;;;6131615;23;20452;-90
2023/08/02 08:58:34;;;;;;;2.45;0.70;;;22.60;56.70;;;;;;6107465;23;20099;-90
2023/08/02 09:01:05;;;;;;;3.70;0.77;;;22.30;57.10;;;;;;6131560;23;20028;-90
2023/08/02 09:03:34;;;;;;;6.07;0.90;;;22.20;57.60;;;;;;6131452;23;20108;-90
2023/08/02 09:06:03;;;;;;;4.28;0.68;;;22.10;58.50;;;;;;6131547;23;20021;-90
2023/08/02 09:08:43;;;;;;;7.00;0.98;;;22.20;58.60;;;;;;6107332;23;20021;-90
2023/08/02 09:11:11;;;;;;;3.03;0.70;;;22.40;58.40;;;;;;6131803;23;20017;-90
2023/08/02 09:13:38;;;;;;;2.07;0.70;;;22.60;57.20;;;;;;6131915;23;20043;-90
2023/08/02 09:16:10;;;;;;;2.63;0.50;;;22.80;56.00;;;;;;6107510;23;20045;-90
2023/08/02 09:18:47;;;;;;;2.42;0.70;;;23.00;57.30;;;;;;6131815;23;20026;-90
2023/08/02 09:21:19;;;;;;;3.50;0.80;;;23.00;55.10;;;;;;6131819;23;20018;-90
2023/08/02 09:23:58;;;;;;;4.03;0.80;;;23.10;55.70;;;;;;6131879;23;20021;-90
2023/08/02 09:26:25;;;;;;;3.47;1.00;;;23.20;54.90;;;;;;6131974;23;20018;-90
2023/08/02 09:29:04;;;;;;;4.07;0.85;;;23.30;56.10;;;;;;6131623;23;20021;-90
2023/08/02 09:31:34;;;;;;;5.72;0.70;;;23.40;55.60;;;;;;6131810;23;20017;-90
2023/08/02 09:34:02;;;;;;;3.92;0.80;;;23.40;54.70;;;;;;6131810;23;20403;-90
2023/08/02 09:36:32;;;;;;;2.50;0.57;;;23.40;54.90;;;;;;6107440;23;20100;-90
2023/08/02 09:39:09;;;;;;;3.77;0.60;;;23.40;55.10;;;;;;6132366;23;20025;-90
2023/08/02 09:41:37;;;;;;;2.42;0.70;;;23.50;52.20;;;;;;6131864;23;20025;-90
2023/08/02 09:44:08;;;;;;;3.80;0.50;;;23.50;52.60;;;;;;6132403;23;20109;-89
2023/08/02 09:46:36;;;;;;;4.25;0.70;;;23.60;53.60;;;;;;6131787;23;20094;-90
2023/08/02 09:49:23;;;;;;;4.30;0.75;;;23.70;55.00;;;;;;6131393;23;20022;-90
2023/08/02 09:51:51;;;;;;;2.63;0.60;;;23.60;53.20;;;;;;6106665;23;20076;-90
2023/08/02 09:54:18;;;;;;;4.55;0.90;;;23.60;52.80;;;;;;6131510;23;20024;-89
2023/08/02 09:56:46;;;;;;;2.47;0.70;;;23.80;54.50;;;;;;6131653;23;20037;-89
2023/08/02 10:03:13;;;;;;;3.38;0.80;;;24.00;52.10;;;;;;6158067;23;20486;-89
2023/08/02 10:05:55;;;;;;;3.30;0.60;;;23.90;52.20;;;;;;6131656;23;20475;-90
2023/08/02 10:08:26;;;;;;;4.40;0.75;;;23.80;53.40;;;;;;6131699;23;20049;-89
2023/08/02 10:10:54;;;;;;;2.13;0.57;;;23.80;51.90;;;;;;6131528;23;20049;-90
2023/08/02 10:13:26;;;;;;;3.85;0.57;;;23.90;51.40;;;;;;6131898;23;20021;-90
2023/08/02 10:15:55;;;;;;;3.30;0.80;;;24.10;52.70;;;;;;6131381;23;20013;-90
2023/08/02 10:18:24;;;;;;;3.73;0.70;;;24.30;52.00;;;;;;6107643;23;20017;-90
2023/08/02 10:20:52;;;;;;;3.90;0.60;;;24.40;53.40;;;;;;6132796;23;20017;-90
2023/08/02 10:23:20;;;;;;;2.45;0.60;;;24.50;52.00;;;;;;6109224;23;20093;-90
2023/08/02 10:25:48;;;;;;;1.88;0.50;;;24.60;52.00;;;;;;6108892;23;20412;-89
2023/08/02 10:28:16;;;;;;;2.90;0.50;;;24.50;51.80;;;;;;6109149;23;20112;-90
2023/08/02 10:30:43;;;;;;;3.60;0.77;;;24.60;54.60;;;;;;6133161;23;20075;-90
2023/08/02 10:33:17;;;;;;;3.42;0.70;;;24.80;55.10;;;;;;6108460;23;20736;-90
2023/08/02 10:36:02;;;;;;;3.05;0.47;;;24.90;52.40;;;;;;6133273;23;20475;-90
2023/08/02 10:38:42;;;;;;;4.20;0.50;;;24.90;51.60;;;;;;6132918;23;20021;-89
2023/08/02 10:41:21;;;;;;;2.05;0.60;;;24.80;51.40;;;;;;6132954;23;20026;-89
2023/08/02 10:43:55;;;;;;;3.00;0.60;;;24.70;51.30;;;;;;6132702;23;20026;-90
2023/08/02 10:46:28;;;;;;;2.83;0.60;;;24.50;51.70;;;;;;6108812;23;20047;-90
2023/08/02 10:49:10;;;;;;;2.47;0.50;;;24.60;50.70;;;;;;6132689;23;20021;-90
2023/08/02 10:51:38;;;;;;;2.40;0.40;;;24.70;50.20;;;;;;6133252;23;20041;-89
2023/08/02 10:54:25;;;;;;;2.88;0.60;;;24.70;47.30;;;;;;6108689;23;20069;-90
2023/08/02 10:56:54;;;;;;;2.83;0.40;;;24.70;47.50;;;;;;6108984;23;20025;-89
2023/08/02 10:59:24;;;;;;;3.60;0.60;;;24.60;47.00;;;;;;6108687;23;20021;-89
2023/08/02 11:02:12;;;;;;;2.47;0.57;;;24.40;49.40;;;;;;6132928;23;20049;-89
2023/08/02 11:04:45;;;;;;;4.10;0.70;;;24.20;51.80;;;;;;6108585;23;20043;-89
2023/08/02 11:07:14;;;;;;;5.95;0.60;;;24.10;50.90;;;;;;6096828;23;20044;-89
2023/08/02 11:09:45;;;;;;;4.87;0.63;;;24.10;50.80;;;;;;6132595;23;20444;-89
2023/08/02 11:12:17;;;;;;;2.92;0.70;;;24.30;51.40;;;;;;6133220;23;20096;-89
2023/08/02 11:14:47;;;;;;;1.90;0.40;;;24.30;49.80;;;;;;6132821;23;20048;-89
2023/08/02 11:17:22;;;;;;;3.22;0.50;;;24.40;50.60;;;;;;6132277;23;20436;-89
2023/08/02 11:19:53;;;;;;;3.38;0.60;;;24.50;50.40;;;;;;6132343;23;20108;-89
2023/08/02 11:22:25;;;;;;;3.03;0.60;;;24.60;51.50;;;;;;6132567;23;20109;-90
2023/08/02 11:24:54;;;;;;;2.60;0.50;;;24.70;51.90;;;;;;6108462;23;20028;-86
2023/08/02 11:27:23;;;;;;;3.10;0.65;;;24.70;49.10;;;;;;6132426;23;20392;-89
2023/08/02 11:29:57;;;;;;;3.95;0.60;;;24.60;50.40;;;;;;6131837;23;20445;-90
2023/08/02 11:32:27;;;;;;;4.40;0.68;;;24.70;50.80;;;;;;6108596;23;20017;-89
2023/08/02 11:34:55;;;;;;;3.90;0.60;;;24.60;49.80;;;;;;6108527;23;20027;-90
2023/08/02 11:37:22;;;;;;;5.38;0.90;;;24.60;49.60;;;;;;6132860;23;20385;-89
2023/08/02 11:39:54;;;;;;;4.65;0.70;;;24.90;48.60;;;;;;6107931;23;20108;-89
2023/08/02 11:42:25;;;;;;;3.60;0.70;;;25.10;49.80;;;;;;6132655;23;20026;-89
2023/08/02 11:44:53;;;;;;;4.40;0.60;;;25.10;51.30;;;;;;6132346;23;20036;-89
2023/08/02 11:47:38;;;;;;;3.13;0.50;;;25.00;50.70;;;;;;6132355;23;20351;-89
2023/08/02 11:50:06;;;;;;;3.10;0.60;;;24.80;51.30;;;;;;6107816;23;20025;-90
2023/08/02 11:52:33;;;;;;;4.50;0.60;;;24.60;50.20;;;;;;6108075;23;20013;-89
2023/08/02 11:55:01;;;;;;;3.33;0.65;;;24.70;48.60;;;;;;6130013;23;20018;-89
2023/08/02 11:57:29;;;;;;;2.80;0.57;;;24.70;47.70;;;;;;6132597;23;20028;-90
2023/08/02 11:59:57;;;;;;;3.80;0.97;;;24.80;48.50;;;;;;6132297;23;20396;-90
2023/08/02 12:02:29;;;;;;;4.72;0.95;;;25.00;48.40;;;;;;6117648;23;20099;-89
2023/08/02 12:05:05;;;;;;;3.72;0.70;;;25.10;50.80;;;;;;6150699;23;20022;-90
2023/08/02 12:07:35;;;;;;;3.95;1.00;;;25.20;48.20;;;;;;6132440;23;20474;-89
2023/08/02 12:10:04;;;;;;;3.63;0.60;;;25.60;51.10;;;;;;6132228;23;20052;-89
2023/08/02 12:12:33;;;;;;;2.73;0.50;;;25.70;48.40;;;;;;6102960;23;20022;-89
2023/08/02 12:15:11;;;;;;;5.03;0.60;;;25.70;45.80;;;;;;6127859;23;20018;-89
2023/08/02 12:17:38;;;;;;;3.70;0.70;;;25.60;46.50;;;;;;6132009;23;20059;-89
2023/08/02 12:20:06;;;;;;;3.63;0.73;;;25.70;46.30;;;;;;6132116;23;20021;-89
2023/08/02 12:22:49;;;;;;;2.50;0.60;;;26.00;47.60;;;;;;6107990;23;20022;-89
2023/08/02 12:25:16;;;;;;;3.20;0.80;;;25.80;46.60;;;;;;6132431;23;20052;-89
2023/08/02 12:28:05;;;;;;;4.15;0.70;;;25.70;48.70;;;;;;6132125;23;20108;-90
2023/08/02 12:30:32;;;;;;;4.10;0.95;;;25.70;46.90;;;;;;6132130;23;20041;-90
2023/08/02 12:32:59;;;;;;;2.10;0.60;;;25.80;46.50;;;;;;6131977;23;20100;-90
2023/08/02 12:35:27;;;;;;;2.95;0.63;;;25.90;46.40;;;;;;6108192;23;20393;-89
2023/08/02 12:37:54;;;;;;;3.20;0.60;;;26.00;44.60;;;;;;6132202;23;20056;-89
2023/08/02 12:40:21;;;;;;;2.00;0.50;;;25.70;44.00;;;;;;6131978;23;20530;-90
2023/08/02 12:42:48;;;;;;;3.10;0.63;;;25.60;43.90;;;;;;6132190;23;20502;-90
2023/08/02 12:45:28;;;;;;;2.40;0.50;;;25.50;45.10;;;;;;6132160;23;20333;-90
2023/08/02 12:47:55;;;;;;;4.18;0.80;;;25.40;46.20;;;;;;6131787;23;20079;-90
2023/08/02 12:50:23;;;;;;;3.50;0.70;;;25.20;46.40;;;;;;6131400;23;20041;-90
2023/08/02 12:52:54;;;;;;;4.03;0.75;;;25.10;46.40;;;;;;6131946;23;20014;-90
2023/08/02 12:55:21;;;;;;;4.20;0.73;;;25.00;47.40;;;;;;6131969;23;20013;-90
2023/08/02 12:57:48;;;;;;;3.78;1.15;;;25.00;46.50;;;;;;6131818;23;20017;-90
2023/08/02 13:00:18;;;;;;;3.85;0.60;;;24.90;46.60;;;;;;6132034;23;20460;-90